createdAt,value
2022-09-25T00:01:00.721Z,22.97
2022-09-25T00:03:29.491Z,23.57
2022-09-25T00:06:05.119Z,23.43
2022-09-25T00:08:32.450Z,20.37
2022-09-25T00:10:59.486Z,24.00
2022-09-25T00:13:26.510Z,20.90
2022-09-25T00:15:56.354Z,21.17
2022-09-25T00:18:43.791Z,21.87
2022-09-25T00:21:14.157Z,19.80
2022-09-25T00:23:43.141Z,20.73
2022-09-25T00:26:09.824Z,21.77
2022-09-25T00:28:37.469Z,22.37
2022-09-25T00:31:05.924Z,22.30
2022-09-25T00:33:33.781Z,23.30
2022-09-25T00:36:06.232Z,20.80
2022-09-25T00:38:34.373Z,19.70
2022-09-25T00:41:02.490Z,26.20
2022-09-25T00:43:41.737Z,22.90
2022-09-25T00:46:36.564Z,19.27
2022-09-25T00:49:10.374Z,19.17
2022-09-25T00:51:54.449Z,20.67
2022-09-25T00:54:27.468Z,17.60
2022-09-25T00:56:56.302Z,19.53
2022-09-25T00:59:27.898Z,18.40
2022-09-25T01:01:55.321Z,20.10
2022-09-25T01:04:23.138Z,20.77
2022-09-25T01:06:52.876Z,19.20
2022-09-25T01:09:20.030Z,19.50
2022-09-25T01:11:47.091Z,20.80
2022-09-25T01:14:17.281Z,19.10
2022-09-25T01:17:21.729Z,19.10
2022-09-25T01:19:53.970Z,19.50
2022-09-25T01:22:58.227Z,18.57
2022-09-25T01:25:46.162Z,17.70
2022-09-25T01:28:27.245Z,18.83
2022-09-25T01:31:01.667Z,19.20
2022-09-25T01:33:41.723Z,18.60
2022-09-25T01:36:34.412Z,20.67
2022-09-25T01:39:21.180Z,19.67
2022-09-25T01:41:50.799Z,21.93
2022-09-25T01:44:40.128Z,19.60
2022-09-25T01:47:12.054Z,18.37
2022-09-25T01:49:44.988Z,19.80
2022-09-25T01:52:16.695Z,20.10
2022-09-25T01:54:51.873Z,20.30
2022-09-25T01:57:29.506Z,20.60
2022-09-25T02:00:09.924Z,20.77
2022-09-25T02:02:57.326Z,19.60
2022-09-25T02:05:32.727Z,21.47
2022-09-25T02:08:04.688Z,18.27
2022-09-25T02:10:40.021Z,17.50
2022-09-25T02:13:13.147Z,17.97
2022-09-25T02:15:54.269Z,16.40
2022-09-25T02:18:41.055Z,14.93
2022-09-25T02:21:40.256Z,17.70
2022-09-25T02:24:14.461Z,16.33
2022-09-25T02:26:41.245Z,16.47
2022-09-25T02:29:08.949Z,17.43
2022-09-25T02:31:42.962Z,16.47
2022-09-25T02:34:14.715Z,15.53
2022-09-25T02:36:43.140Z,16.77
2022-09-25T02:39:11.505Z,18.07
2022-09-25T02:41:54.532Z,15.10
2022-09-25T02:44:58.948Z,16.27
2022-09-25T02:48:08.570Z,16.97
2022-09-25T02:50:51.500Z,16.27
2022-09-25T02:53:33.064Z,17.73
2022-09-25T02:56:05.499Z,16.63
2022-09-25T02:58:54.995Z,16.40
2022-09-25T03:01:24.831Z,16.77
2022-09-25T03:03:54.698Z,15.40
2022-09-25T03:06:22.485Z,15.13
2022-09-25T03:08:52.952Z,16.00
2022-09-25T03:11:21.688Z,14.97
2022-09-25T03:14:02.812Z,16.27
2022-09-25T03:16:40.561Z,13.83
2022-09-25T03:19:07.877Z,15.07
2022-09-25T03:21:34.532Z,14.90
2022-09-25T03:24:01.451Z,13.43
2022-09-25T03:26:28.221Z,14.53
2022-09-25T03:28:54.939Z,14.30
2022-09-25T03:31:21.628Z,14.13
2022-09-25T03:33:48.776Z,14.13
2022-09-25T03:36:20.610Z,15.30
2022-09-25T03:38:50.469Z,13.97
2022-09-25T03:41:21.250Z,14.83
2022-09-25T03:43:51.299Z,14.60
2022-09-25T03:46:26.596Z,15.03
2022-09-25T03:48:53.963Z,15.40
2022-09-25T03:51:21.532Z,16.43
2022-09-25T03:53:50.514Z,16.93
2022-09-25T03:56:20.316Z,17.23
2022-09-25T03:58:48.465Z,17.13
2022-09-25T04:01:16.402Z,18.10
2022-09-25T04:03:47.278Z,17.10
2022-09-25T04:06:18.531Z,19.13
2022-09-25T04:08:46.931Z,19.90
2022-09-25T04:11:15.031Z,20.40
2022-09-25T04:13:43.376Z,20.43
2022-09-25T04:16:10.797Z,21.70
2022-09-25T04:18:37.838Z,20.53
2022-09-25T04:21:08.277Z,19.87
2022-09-25T04:23:36.427Z,18.80
2022-09-25T04:26:03.865Z,20.07
2022-09-25T04:28:32.175Z,22.50
2022-09-25T04:31:00.038Z,22.30
2022-09-25T04:33:45.353Z,19.83
2022-09-25T04:36:12.011Z,20.87
2022-09-25T04:38:38.722Z,22.80
2022-09-25T04:41:05.754Z,21.37
2022-09-25T04:43:33.046Z,20.33
2022-09-25T04:46:08.670Z,22.87
2022-09-25T04:48:35.941Z,20.97
2022-09-25T04:51:03.902Z,23.63
2022-09-25T04:53:31.711Z,21.93
2022-09-25T04:56:12.205Z,21.37
2022-09-25T04:58:45.098Z,21.37
2022-09-25T05:01:11.777Z,22.67
2022-09-25T05:03:38.495Z,21.00
2022-09-25T05:06:05.314Z,22.10
2022-09-25T05:08:31.918Z,19.97
2022-09-25T05:10:58.665Z,21.23
2022-09-25T05:13:25.395Z,22.07
2022-09-25T05:15:52.149Z,22.43
2022-09-25T05:18:21.304Z,20.77
2022-09-25T05:20:48.842Z,20.83
2022-09-25T05:23:16.313Z,21.00
2022-09-25T05:25:43.111Z,21.40
2022-09-25T05:28:10.095Z,20.70
2022-09-25T05:30:38.757Z,21.53
2022-09-25T05:33:05.750Z,20.53
2022-09-25T05:35:33.354Z,21.93
2022-09-25T05:37:59.990Z,20.73
2022-09-25T05:40:27.124Z,19.07
2022-09-25T05:42:55.216Z,21.40
2022-09-25T05:45:23.317Z,20.80
2022-09-25T05:47:59.917Z,20.33
2022-09-25T05:50:27.059Z,22.50
2022-09-25T05:52:57.827Z,20.57
2022-09-25T05:55:25.069Z,22.80
2022-09-25T05:57:51.784Z,21.30
2022-09-25T06:00:18.703Z,21.20
2022-09-25T06:02:45.428Z,19.17
2022-09-25T06:05:12.042Z,20.57
2022-09-25T06:07:38.735Z,23.13
2022-09-25T06:10:06.092Z,20.83
2022-09-25T06:12:32.692Z,19.17
2022-09-25T06:14:59.306Z,20.13
2022-09-25T06:17:25.943Z,20.77
2022-09-25T06:19:52.620Z,21.43
2022-09-25T06:22:19.276Z,22.30
2022-09-25T06:24:45.945Z,22.73
2022-09-25T06:27:12.549Z,20.97
2022-09-25T06:29:39.164Z,23.57
2022-09-25T06:32:05.830Z,21.17
2022-09-25T06:34:32.715Z,21.37
2022-09-25T06:37:00.825Z,20.80
2022-09-25T06:39:27.451Z,21.40
2022-09-25T06:41:54.332Z,21.20
2022-09-25T06:44:22.566Z,23.93
2022-09-25T06:46:54.471Z,22.43
2022-09-25T06:49:21.956Z,24.13
2022-09-25T06:51:50.900Z,25.30
2022-09-25T06:54:17.807Z,23.40
2022-09-25T06:56:48.012Z,24.33
2022-09-25T06:59:14.802Z,25.07
2022-09-25T07:01:41.564Z,24.83
2022-09-25T07:04:08.203Z,26.07
2022-09-25T07:06:37.284Z,25.17
2022-09-25T07:09:04.089Z,24.97
2022-09-25T07:11:33.668Z,28.43
2022-09-25T07:14:00.336Z,26.23
2022-09-25T07:16:30.746Z,27.20
2022-09-25T07:19:01.337Z,25.60
2022-09-25T07:21:30.569Z,26.50
2022-09-25T07:23:58.718Z,24.83
2022-09-25T07:26:28.205Z,24.40
2022-09-25T07:29:00.567Z,27.03
2022-09-25T07:31:32.782Z,26.27
2022-09-25T07:34:02.906Z,26.17
2022-09-25T07:36:29.838Z,24.40
2022-09-25T07:38:56.445Z,25.20
2022-09-25T07:41:23.640Z,23.70
2022-09-25T07:44:17.723Z,21.40
2022-09-25T07:46:44.414Z,20.07
2022-09-25T07:49:11.697Z,18.70
2022-09-25T07:51:38.362Z,16.10
2022-09-25T07:54:05.184Z,15.90
2022-09-25T07:56:34.396Z,9.47
2022-09-25T07:59:01.021Z,8.80
2022-09-25T08:01:27.729Z,9.07
2022-09-25T08:03:54.734Z,5.00
2022-09-25T08:06:21.479Z,6.40
2022-09-25T08:08:48.108Z,6.50
2022-09-25T08:11:16.971Z,5.43
2022-09-25T08:13:44.455Z,5.30
2022-09-25T08:16:14.754Z,4.60
2022-09-25T08:18:43.120Z,5.07
2022-09-25T08:21:11.061Z,5.97
2022-09-25T08:23:37.736Z,5.80
2022-09-25T08:26:04.410Z,6.50
2022-09-25T08:28:31.086Z,6.20
2022-09-25T08:31:04.572Z,7.70
2022-09-25T08:33:31.891Z,7.50
2022-09-25T08:36:01.038Z,8.10
2022-09-25T08:38:28.684Z,8.27
2022-09-25T08:41:02.049Z,8.93
2022-09-25T08:43:29.664Z,9.40
2022-09-25T08:46:19.107Z,9.80
2022-09-25T08:49:04.781Z,8.70
2022-09-25T08:51:38.860Z,9.90
2022-09-25T08:54:06.155Z,10.43
2022-09-25T08:56:35.191Z,10.20
2022-09-25T08:59:01.975Z,9.50
2022-09-25T09:01:40.147Z,9.90
2022-09-25T09:04:18.159Z,9.20
2022-09-25T09:06:49.797Z,8.10
2022-09-25T09:09:27.157Z,8.33
2022-09-25T09:12:08.359Z,7.17
2022-09-25T09:14:43.287Z,6.93
2022-09-25T09:17:18.620Z,6.00
2022-09-25T09:20:06.933Z,6.80
2022-09-25T09:22:42.092Z,6.30
2022-09-25T09:25:27.006Z,7.27
2022-09-25T09:28:38.338Z,7.00
2022-09-25T09:31:24.713Z,7.40
2022-09-25T09:34:36.205Z,6.43
2022-09-25T09:37:37.990Z,6.57
2022-09-25T09:40:27.203Z,8.20
2022-09-25T09:43:16.748Z,7.20
2022-09-25T09:45:46.232Z,9.47
2022-09-25T09:48:25.751Z,9.93
2022-09-25T09:51:06.293Z,9.60
2022-09-25T09:53:47.910Z,10.93
2022-09-25T09:56:35.445Z,11.47
2022-09-25T09:59:12.866Z,11.30
2022-09-25T10:01:42.787Z,11.30
2022-09-25T10:04:29.869Z,10.47
2022-09-25T10:07:03.307Z,11.67
2022-09-25T10:09:29.928Z,11.17
2022-09-25T10:12:20.787Z,10.90
2022-09-25T10:14:48.481Z,10.57
2022-09-25T10:17:17.052Z,10.90
2022-09-25T10:19:58.259Z,11.13
2022-09-25T10:22:28.946Z,10.50
2022-09-25T10:25:03.441Z,9.70
2022-09-25T10:27:33.192Z,10.63
2022-09-25T10:30:12.229Z,9.27
2022-09-25T10:32:57.754Z,10.67
2022-09-25T10:35:39.956Z,10.27
2022-09-25T10:38:36.850Z,11.23
2022-09-25T10:41:12.487Z,10.40
2022-09-25T10:43:54.216Z,9.80
2022-09-25T10:46:52.116Z,9.70
2022-09-25T10:49:43.110Z,10.33
2022-09-25T10:52:12.604Z,9.93
2022-09-25T10:54:44.771Z,10.10
2022-09-25T10:57:38.323Z,9.80
2022-09-25T11:00:19.860Z,9.37
2022-09-25T11:02:48.368Z,8.57
2022-09-25T11:05:36.182Z,10.30
2022-09-25T11:08:06.727Z,9.17
2022-09-25T11:10:56.365Z,9.23
2022-09-25T11:13:36.823Z,8.73
2022-09-25T11:16:10.292Z,8.67
2022-09-25T11:18:39.050Z,8.37
2022-09-25T11:21:16.780Z,8.90
2022-09-25T11:24:01.686Z,9.17
2022-09-25T11:26:36.487Z,8.87
2022-09-25T11:29:15.572Z,8.97
2022-09-25T11:31:56.056Z,8.30
2022-09-25T11:34:51.869Z,8.60
2022-09-25T11:37:20.579Z,9.30
2022-09-25T11:40:15.483Z,9.90
2022-09-25T11:42:59.732Z,9.43
2022-09-25T11:45:36.686Z,10.03
2022-09-25T11:48:10.610Z,9.00
2022-09-25T11:51:01.673Z,8.30
2022-09-25T11:53:28.232Z,7.87
2022-09-25T11:56:06.792Z,7.40
2022-09-25T11:59:15.677Z,8.30
2022-09-25T12:01:55.110Z,6.27
2022-09-25T12:05:00.931Z,6.60
2022-09-25T12:07:35.874Z,6.67
2022-09-25T12:10:29.413Z,6.40
2022-09-25T12:13:16.541Z,6.50
2022-09-25T12:15:58.750Z,7.53
2022-09-25T12:18:52.622Z,6.60
2022-09-25T12:21:32.102Z,7.00
2022-09-25T12:24:10.411Z,7.00
2022-09-25T12:27:13.733Z,6.20
2022-09-25T12:30:03.496Z,7.07
2022-09-25T12:32:48.264Z,7.70
2022-09-25T12:35:33.754Z,6.80
2022-09-25T12:38:31.246Z,7.70
2022-09-25T12:41:17.920Z,7.80
2022-09-25T12:43:48.070Z,8.37
2022-09-25T12:46:34.189Z,7.70
2022-09-25T12:49:16.121Z,7.93
2022-09-25T12:51:50.006Z,8.40
2022-09-25T12:54:32.461Z,7.50
2022-09-25T12:57:06.111Z,7.03
2022-09-25T13:00:20.162Z,11.07
2022-09-25T13:03:02.409Z,6.93
2022-09-25T13:05:46.408Z,6.40
2022-09-25T13:08:29.473Z,5.53
2022-09-25T13:11:01.826Z,5.30
2022-09-25T13:13:36.326Z,4.80
2022-09-25T13:16:03.239Z,5.70
2022-09-25T13:18:33.951Z,4.10
2022-09-25T13:21:39.134Z,5.47
2022-09-25T13:24:09.108Z,3.57
2022-09-25T13:26:52.633Z,3.57
2022-09-25T13:29:31.646Z,3.90
2022-09-25T13:32:19.005Z,3.03
2022-09-25T13:34:46.732Z,4.00
2022-09-25T13:37:15.772Z,3.40
2022-09-25T13:40:07.195Z,3.70
2022-09-25T13:42:37.896Z,3.90
2022-09-25T13:45:22.316Z,3.00
2022-09-25T13:47:56.055Z,3.60
2022-09-25T13:50:31.121Z,3.30
2022-09-25T13:53:20.183Z,3.80
2022-09-25T13:55:55.687Z,3.17
2022-09-25T13:58:25.689Z,3.00
2022-09-25T14:00:58.826Z,2.97
2022-09-25T14:03:37.841Z,3.10
2022-09-25T14:06:09.525Z,3.47
2022-09-25T14:08:41.358Z,2.70
2022-09-25T14:11:11.720Z,2.50
2022-09-25T14:13:43.153Z,2.50
2022-09-25T14:16:31.985Z,2.73
2022-09-25T14:19:00.887Z,2.73
2022-09-25T14:21:29.610Z,2.50
2022-09-25T14:23:58.310Z,2.93
2022-09-25T14:26:27.405Z,3.60
2022-09-25T14:28:55.996Z,3.10
2022-09-25T14:31:32.070Z,2.40
2022-09-25T14:34:34.217Z,3.73
2022-09-25T14:37:20.371Z,2.67
2022-09-25T14:40:01.995Z,2.70
2022-09-25T14:42:52.077Z,2.27
2022-09-25T14:45:34.285Z,2.90
2022-09-25T14:48:05.407Z,2.33
2022-09-25T14:50:38.903Z,2.73
2022-09-25T14:53:14.313Z,2.23
2022-09-25T14:55:48.799Z,3.40
2022-09-25T14:58:20.331Z,2.43
2022-09-25T15:01:00.024Z,2.33
2022-09-25T15:03:31.842Z,2.20
2022-09-25T15:06:02.137Z,3.10
2022-09-25T15:08:40.772Z,2.40
2022-09-25T15:11:14.449Z,2.50
2022-09-25T15:13:42.144Z,1.90
2022-09-25T15:16:41.600Z,1.70
2022-09-25T15:19:17.338Z,1.90
2022-09-25T15:21:44.265Z,2.10
2022-09-25T15:24:18.833Z,2.17
2022-09-25T15:27:02.661Z,1.63
2022-09-25T15:29:35.496Z,1.80
2022-09-25T15:32:03.505Z,1.83
2022-09-25T15:34:31.180Z,2.00
2022-09-25T15:37:29.435Z,1.67
2022-09-25T15:40:00.729Z,1.57
2022-09-25T15:42:27.347Z,1.63
2022-09-25T15:44:57.376Z,1.53
2022-09-25T15:47:35.794Z,1.27
2022-09-25T15:50:15.444Z,1.20
2022-09-25T15:52:42.077Z,1.60
2022-09-25T15:55:14.626Z,1.30
2022-09-25T15:57:42.039Z,2.30
2022-09-25T16:00:39.087Z,1.73
2022-09-25T16:03:42.347Z,1.87
2022-09-25T16:06:18.482Z,1.70
2022-09-25T16:08:45.106Z,2.37
2022-09-25T16:11:25.208Z,1.43
2022-09-25T16:13:54.201Z,0.93
2022-09-25T16:16:30.372Z,2.30
2022-09-25T16:18:59.611Z,0.83
2022-09-25T16:21:28.776Z,1.00
2022-09-25T16:24:05.752Z,1.00
2022-09-25T16:26:41.983Z,1.40
2022-09-25T16:29:22.203Z,1.10
2022-09-25T16:31:53.315Z,0.97
2022-09-25T16:34:30.043Z,1.07
2022-09-25T16:37:05.266Z,1.10
2022-09-25T16:39:37.408Z,1.13
2022-09-25T16:42:29.487Z,1.10
2022-09-25T16:45:17.494Z,1.27
2022-09-25T16:47:49.239Z,1.20
2022-09-25T16:50:16.746Z,1.20
2022-09-25T16:52:44.478Z,1.20
2022-09-25T16:55:18.363Z,1.33
2022-09-25T16:57:46.315Z,1.90
2022-09-25T17:00:16.751Z,1.23
2022-09-25T17:02:44.927Z,1.33
2022-09-25T17:05:19.290Z,1.80
2022-09-25T17:07:50.558Z,1.40
2022-09-25T17:10:20.408Z,1.77
2022-09-25T17:12:53.471Z,2.37
2022-09-25T17:15:34.508Z,2.00
2022-09-25T17:18:02.289Z,1.70
2022-09-25T17:20:33.985Z,1.70
2022-09-25T17:23:00.689Z,2.07
2022-09-25T17:25:48.378Z,1.90
2022-09-25T17:28:15.556Z,1.57
2022-09-25T17:30:43.737Z,1.60
2022-09-25T17:33:15.945Z,1.50
2022-09-25T17:36:05.543Z,2.10
2022-09-25T17:38:33.786Z,1.73
2022-09-25T17:41:05.613Z,1.40
2022-09-25T17:43:32.967Z,1.90
2022-09-25T17:46:00.816Z,1.60
2022-09-25T17:48:30.402Z,1.40
2022-09-25T17:51:02.259Z,1.57
2022-09-25T17:53:31.612Z,1.10
2022-09-25T17:56:00.012Z,1.63
2022-09-25T17:58:28.718Z,1.30
2022-09-25T18:00:59.298Z,2.10
2022-09-25T18:03:26.701Z,1.93
2022-09-25T18:05:53.829Z,2.17
2022-09-25T18:08:20.456Z,1.40
2022-09-25T18:10:48.845Z,1.73
2022-09-25T18:13:23.039Z,1.57
2022-09-25T18:15:54.281Z,1.57
2022-09-25T18:18:21.262Z,1.83
2022-09-25T18:21:09.314Z,1.77
2022-09-25T18:23:38.435Z,2.80
2022-09-25T18:26:07.638Z,2.57
2022-09-25T18:28:34.286Z,2.23
2022-09-25T18:31:00.921Z,2.00
2022-09-25T18:33:27.753Z,2.40
2022-09-25T18:35:54.799Z,1.77
2022-09-25T18:38:21.488Z,2.10
2022-09-25T18:40:48.293Z,2.10
2022-09-25T18:43:15.159Z,1.97
2022-09-25T18:45:50.939Z,2.30
2022-09-25T18:48:17.597Z,2.47
2022-09-25T18:50:49.209Z,2.10
2022-09-25T18:53:16.847Z,3.37
2022-09-25T18:55:43.936Z,4.60
2022-09-25T18:58:11.414Z,1.80
2022-09-25T19:00:39.814Z,2.00
2022-09-25T19:03:06.901Z,2.53
2022-09-25T19:05:33.623Z,1.70
2022-09-25T19:08:00.379Z,1.90
2022-09-25T19:10:30.271Z,2.67
2022-09-25T19:12:56.888Z,3.10
2022-09-25T19:15:24.802Z,2.50
2022-09-25T19:17:51.423Z,2.30
2022-09-25T19:20:18.089Z,2.63
2022-09-25T19:22:45.704Z,3.50
2022-09-25T19:25:12.348Z,2.47
2022-09-25T19:27:38.996Z,17.80
2022-09-25T19:30:06.082Z,4.70
2022-09-25T19:32:32.877Z,6.50
2022-09-25T19:34:59.741Z,4.73
2022-09-25T19:37:29.781Z,3.90
2022-09-25T19:40:15.430Z,3.37
2022-09-25T19:42:42.170Z,3.20
2022-09-25T19:45:09.645Z,3.50
2022-09-25T19:47:36.334Z,2.70
2022-09-25T19:50:06.886Z,3.90
2022-09-25T19:52:33.474Z,3.53
2022-09-25T19:55:00.071Z,3.20
2022-09-25T19:57:27.604Z,6.20
2022-09-25T19:59:54.910Z,4.20
2022-09-25T20:02:21.643Z,3.50
2022-09-25T20:04:48.650Z,4.43
2022-09-25T20:07:16.500Z,2.73
2022-09-25T20:09:44.478Z,3.73
2022-09-25T20:12:11.530Z,3.03
2022-09-25T20:14:38.468Z,3.10
2022-09-25T20:17:09.681Z,4.47
2022-09-25T20:19:36.939Z,4.80
2022-09-25T20:22:03.545Z,4.33
2022-09-25T20:24:30.172Z,3.80
2022-09-25T20:26:56.787Z,2.50
2022-09-25T20:29:23.376Z,4.00
2022-09-25T20:31:50.164Z,2.90
2022-09-25T20:34:19.481Z,2.33
2022-09-25T20:36:47.054Z,3.33
2022-09-25T20:39:19.861Z,2.83
2022-09-25T20:41:47.908Z,2.70
2022-09-25T20:44:14.669Z,2.60
2022-09-25T20:46:42.022Z,2.47
2022-09-25T20:49:10.275Z,2.93
2022-09-25T20:51:37.280Z,3.07
2022-09-25T20:54:07.900Z,2.30
2022-09-25T20:56:36.738Z,2.50
2022-09-25T20:59:04.537Z,2.50
2022-09-25T21:01:34.628Z,2.50
2022-09-25T21:04:03.200Z,2.60
2022-09-25T21:06:32.210Z,2.90
2022-09-25T21:09:01.162Z,2.40
2022-09-25T21:11:30.068Z,3.50
2022-09-25T21:13:58.410Z,3.23
2022-09-25T21:16:26.814Z,3.17
2022-09-25T21:18:59.687Z,2.87
2022-09-25T21:21:27.761Z,2.77
2022-09-25T21:23:56.006Z,2.07
2022-09-25T21:26:25.116Z,3.43
2022-09-25T21:28:54.772Z,2.03
2022-09-25T21:31:24.186Z,3.70
2022-09-25T21:33:52.910Z,2.47
2022-09-25T21:36:20.623Z,2.33
2022-09-25T21:38:47.492Z,3.00
2022-09-25T21:41:15.980Z,3.30
2022-09-25T21:43:43.426Z,2.43
2022-09-25T21:46:18.288Z,2.20
2022-09-25T21:48:57.106Z,2.53
2022-09-25T21:51:27.213Z,2.50
2022-09-25T21:53:54.932Z,2.30
2022-09-25T21:56:24.181Z,2.70
2022-09-25T21:58:53.252Z,2.30
2022-09-25T22:01:23.049Z,2.80
2022-09-25T22:03:51.532Z,2.30
2022-09-25T22:06:26.280Z,3.27
2022-09-25T22:08:56.283Z,2.53
2022-09-25T22:11:23.554Z,3.77
2022-09-25T22:13:51.631Z,4.30
2022-09-25T22:16:22.573Z,2.30
2022-09-25T22:18:54.722Z,2.70
2022-09-25T22:21:24.117Z,3.03
2022-09-25T22:23:50.873Z,2.37
2022-09-25T22:26:18.966Z,2.43
2022-09-25T22:28:45.714Z,2.43
2022-09-25T22:31:21.132Z,2.03
2022-09-25T22:33:52.360Z,2.40
2022-09-25T22:36:18.985Z,3.87
2022-09-25T22:38:45.617Z,2.57
2022-09-25T22:41:14.262Z,20.50
2022-09-25T22:43:42.139Z,17.90
2022-09-25T22:46:11.063Z,4.40
2022-09-25T22:48:38.220Z,2.40
2022-09-25T22:51:16.727Z,2.73
2022-09-25T22:53:43.684Z,2.80
2022-09-25T22:56:21.868Z,2.77
2022-09-25T22:58:51.755Z,2.03
2022-09-25T23:01:31.737Z,2.00
2022-09-25T23:04:00.401Z,2.37
2022-09-25T23:06:29.152Z,3.07
2022-09-25T23:08:58.505Z,2.80
2022-09-25T23:11:26.431Z,2.70
2022-09-25T23:13:58.837Z,2.70
2022-09-25T23:16:26.029Z,2.87
2022-09-25T23:18:53.077Z,2.10
2022-09-25T23:21:19.683Z,2.73
2022-09-25T23:23:46.336Z,2.97
2022-09-25T23:26:13.043Z,2.37
2022-09-25T23:28:41.309Z,2.10
2022-09-25T23:31:13.905Z,2.13
2022-09-25T23:33:41.473Z,1.70
2022-09-25T23:36:17.648Z,1.90
2022-09-25T23:38:44.955Z,2.20
2022-09-25T23:41:26.771Z,2.10
2022-09-25T23:43:54.809Z,1.90
2022-09-25T23:46:25.106Z,2.23
2022-09-25T23:48:52.427Z,1.90
2022-09-25T23:51:19.727Z,1.93
2022-09-25T23:53:47.100Z,1.77
2022-09-25T23:56:18.061Z,1.73
2022-09-25T23:58:44.840Z,1.50
